createdAt,value
2017-10-02T00:00:33.577Z,12.87
2017-10-02T00:01:42.410Z,12.93
2017-10-02T00:02:51.243Z,12.9
2017-10-02T00:04:00.075Z,12.9
2017-10-02T00:05:08.908Z,12.82
2017-10-02T00:06:17.891Z,12.82
2017-10-02T00:07:26.724Z,12.95
2017-10-02T00:08:35.562Z,12.83
2017-10-02T00:09:44.394Z,12.78
2017-10-02T00:10:53.228Z,12.83
2017-10-02T00:12:02.065Z,12.83
2017-10-02T00:13:10.896Z,12.79
2017-10-02T00:14:20.060Z,12.82
2017-10-02T00:15:28.889Z,12.89
2017-10-02T00:16:37.722Z,12.86
2017-10-02T00:17:46.655Z,12.78
2017-10-02T00:18:55.488Z,12.79
2017-10-02T00:20:04.321Z,12.83
2017-10-02T00:21:13.157Z,12.75
2017-10-02T00:22:21.989Z,12.93
2017-10-02T00:23:31.250Z,12.92
2017-10-02T00:24:40.083Z,12.92
2017-10-02T00:25:48.917Z,12.85
2017-10-02T00:26:57.751Z,12.89
2017-10-02T00:28:06.583Z,12.86
2017-10-02T00:29:15.765Z,12.77
2017-10-02T00:30:24.599Z,12.79
2017-10-02T00:31:33.433Z,12.82
2017-10-02T00:32:42.266Z,12.82
2017-10-02T00:33:51.427Z,12.79
2017-10-02T00:35:00.310Z,12.85
2017-10-02T00:36:09.143Z,12.86
2017-10-02T00:37:17.974Z,12.87
2017-10-02T00:38:26.808Z,12.87
2017-10-02T00:39:35.644Z,12.9
2017-10-02T00:40:44.529Z,12.85
2017-10-02T00:41:53.362Z,12.82
2017-10-02T00:43:02.195Z,12.87
2017-10-02T00:44:11.033Z,12.85
2017-10-02T00:45:19.863Z,12.78
2017-10-02T00:46:28.844Z,12.82
2017-10-02T00:47:37.678Z,12.77
2017-10-02T00:48:46.514Z,12.78
2017-10-02T00:49:56.034Z,12.77
2017-10-02T00:51:04.867Z,12.82
2017-10-02T00:52:13.751Z,12.77
2017-10-02T00:53:22.584Z,12.77
2017-10-02T00:54:31.417Z,12.82
2017-10-02T00:55:40.249Z,12.75
2017-10-02T00:56:49.439Z,12.82
2017-10-02T00:57:58.575Z,12.77
2017-10-02T00:59:07.406Z,12.78
2017-10-02T01:00:16.573Z,12.78
2017-10-02T01:01:25.405Z,12.82
2017-10-02T01:02:34.570Z,12.78
2017-10-02T01:03:43.549Z,12.77
2017-10-02T01:04:52.381Z,12.78
2017-10-02T01:06:01.214Z,12.82
2017-10-02T01:07:10.048Z,12.75
2017-10-02T01:08:18.879Z,12.78
2017-10-02T01:09:28.013Z,12.82
2017-10-02T01:10:36.894Z,12.78
2017-10-02T01:11:45.728Z,12.77
2017-10-02T01:12:54.560Z,12.78
2017-10-02T01:14:03.726Z,12.75
2017-10-02T01:15:12.708Z,12.78
2017-10-02T01:16:21.538Z,12.72
2017-10-02T01:17:30.371Z,12.77
2017-10-02T01:18:39.201Z,12.85
2017-10-02T01:19:48.033Z,12.82
2017-10-02T01:20:57.172Z,12.74
2017-10-02T01:22:06.333Z,12.78
2017-10-02T01:23:15.161Z,12.82
2017-10-02T01:24:24.322Z,12.82
2017-10-02T01:25:33.153Z,12.9
2017-10-02T01:26:42.285Z,12.93
2017-10-02T01:27:51.446Z,12.85
2017-10-02T01:29:00.279Z,12.92
2017-10-02T01:30:09.114Z,12.79
2017-10-02T01:31:17.947Z,12.85
2017-10-02T01:32:27.080Z,12.83
2017-10-02T01:33:35.911Z,12.9
2017-10-02T01:34:44.746Z,12.89
2017-10-02T01:35:53.581Z,12.86
2017-10-02T01:37:02.415Z,12.92
2017-10-02T01:38:11.295Z,12.93
2017-10-02T01:39:20.465Z,12.87
2017-10-02T01:40:29.293Z,13
2017-10-02T01:41:38.126Z,12.96
2017-10-02T01:42:46.959Z,13
2017-10-02T01:43:55.891Z,12.93
2017-10-02T01:45:04.725Z,13.03
2017-10-02T01:46:13.558Z,12.95
2017-10-02T01:47:22.392Z,13
2017-10-02T01:48:31.228Z,13.01
2017-10-02T01:49:40.311Z,13
2017-10-02T01:50:49.143Z,13.03
2017-10-02T01:51:57.973Z,13.07
2017-10-02T01:53:06.805Z,13.07
2017-10-02T01:54:15.637Z,13.05
2017-10-02T01:55:24.569Z,13.03
2017-10-02T01:56:33.406Z,13.05
2017-10-02T01:57:42.233Z,13.11
2017-10-02T01:58:51.067Z,13.07
2017-10-02T01:59:59.899Z,13.15
2017-10-02T02:01:08.885Z,13.04
2017-10-02T02:02:17.720Z,13.08
2017-10-02T02:03:26.553Z,13.08
2017-10-02T02:04:35.385Z,13.17
2017-10-02T02:05:44.552Z,13.22
2017-10-02T02:06:53.484Z,13.19
2017-10-02T02:08:02.317Z,13.15
2017-10-02T02:09:11.494Z,13.12
2017-10-02T02:10:20.324Z,13.19
2017-10-02T02:11:29.156Z,13.19
2017-10-02T02:12:37.989Z,13.29
2017-10-02T02:13:46.824Z,13.15
2017-10-02T02:14:55.657Z,13.32
2017-10-02T02:16:04.488Z,13.17
2017-10-02T02:17:13.323Z,13.29
2017-10-02T02:18:22.256Z,13.29
2017-10-02T02:19:31.090Z,13.14
2017-10-02T02:20:39.924Z,13.25
2017-10-02T02:21:48.760Z,13.26
2017-10-02T02:22:57.922Z,13.3
2017-10-02T02:24:06.907Z,13.25
2017-10-02T02:25:15.740Z,13.26
2017-10-02T02:26:24.902Z,13.26
2017-10-02T02:27:33.735Z,13.25
2017-10-02T02:28:42.568Z,13.28
2017-10-02T02:29:52.028Z,13.25
2017-10-02T02:31:00.859Z,13.33
2017-10-02T02:32:10.364Z,13.26
2017-10-02T02:33:19.199Z,13.29
2017-10-02T02:34:28.036Z,13.33
2017-10-02T02:35:36.865Z,13.25
2017-10-02T02:36:45.700Z,13.28
2017-10-02T02:37:54.532Z,13.26
2017-10-02T02:39:03.368Z,13.15
2017-10-02T02:40:12.200Z,13.15
2017-10-02T02:41:21.034Z,13.14
2017-10-02T02:42:29.869Z,13.15
2017-10-02T02:43:38.702Z,13.07
2017-10-02T02:44:47.535Z,13.03
2017-10-02T02:45:56.370Z,13.04
2017-10-02T02:47:05.356Z,13.1
2017-10-02T02:48:14.190Z,13.03
2017-10-02T02:49:23.023Z,13.03
2017-10-02T02:50:31.854Z,13.05
2017-10-02T02:51:40.687Z,13.05
2017-10-02T02:52:49.571Z,13.01
2017-10-02T02:53:58.403Z,13.03
2017-10-02T02:55:07.569Z,12.97
2017-10-02T02:56:16.402Z,12.95
2017-10-02T02:57:25.231Z,12.93
2017-10-02T02:58:34.316Z,12.9
2017-10-02T02:59:43.150Z,12.92
2017-10-02T03:00:51.983Z,12.85
2017-10-02T03:02:00.816Z,12.82
2017-10-02T03:03:09.650Z,12.77
2017-10-02T03:04:18.484Z,12.77
2017-10-02T03:05:27.316Z,12.78
2017-10-02T03:06:36.149Z,12.72
2017-10-02T03:07:45.313Z,12.65
2017-10-02T03:08:54.146Z,12.64
2017-10-02T03:10:03.030Z,12.7
2017-10-02T03:11:11.862Z,12.71
2017-10-02T03:12:20.693Z,12.7
2017-10-02T03:13:29.526Z,12.65
2017-10-02T03:14:38.359Z,12.67
2017-10-02T03:15:47.192Z,12.68
2017-10-02T03:16:56.023Z,12.53
2017-10-02T03:18:04.856Z,12.52
2017-10-02T03:19:13.690Z,12.65
2017-10-02T03:20:22.521Z,12.65
2017-10-02T03:21:31.454Z,12.56
2017-10-02T03:22:40.289Z,12.67
2017-10-02T03:23:49.454Z,12.59
2017-10-02T03:24:58.288Z,12.56
2017-10-02T03:26:07.121Z,12.64
2017-10-02T03:27:16.057Z,12.6
2017-10-02T03:28:24.890Z,12.59
2017-10-02T03:29:33.723Z,12.59
2017-10-02T03:30:42.905Z,12.59
2017-10-02T03:31:52.070Z,12.54
2017-10-02T03:33:01.305Z,12.54
2017-10-02T03:34:10.138Z,12.57
2017-10-02T03:35:18.970Z,12.54
2017-10-02T03:36:27.820Z,12.5
2017-10-02T03:37:36.634Z,12.5
2017-10-02T03:38:45.768Z,12.54
2017-10-02T03:39:54.601Z,12.53
2017-10-02T03:41:03.433Z,12.5
2017-10-02T03:42:12.270Z,12.47
2017-10-02T03:43:21.098Z,12.5
2017-10-02T03:44:30.033Z,12.49
2017-10-02T03:45:38.865Z,12.46
2017-10-02T03:46:47.700Z,12.41
2017-10-02T03:47:56.532Z,12.45
2017-10-02T03:49:05.367Z,12.45
2017-10-02T03:50:14.451Z,12.49
2017-10-02T03:51:23.299Z,12.46
2017-10-02T03:52:32.112Z,12.37
2017-10-02T03:53:41.275Z,12.45
2017-10-02T03:54:50.106Z,12.42
2017-10-02T03:55:58.939Z,12.46
2017-10-02T03:57:08.101Z,12.39
2017-10-02T03:58:16.934Z,12.45
2017-10-02T03:59:25.768Z,12.41
2017-10-02T04:00:34.601Z,12.49
2017-10-02T04:01:43.485Z,12.46
2017-10-02T04:02:52.319Z,12.46
2017-10-02T04:04:01.150Z,12.37
2017-10-02T04:05:09.982Z,12.5
2017-10-02T04:06:18.815Z,12.46
2017-10-02T04:07:27.897Z,12.46
2017-10-02T04:08:36.729Z,12.39
2017-10-02T04:09:45.560Z,12.41
2017-10-02T04:10:54.720Z,12.41
2017-10-02T04:12:03.552Z,12.45
2017-10-02T04:13:12.483Z,12.38
2017-10-02T04:14:21.314Z,12.42
2017-10-02T04:15:30.144Z,12.35
2017-10-02T04:16:38.978Z,12.31
2017-10-02T04:17:48.145Z,12.39
2017-10-02T04:18:57.029Z,12.34
2017-10-02T04:20:05.864Z,12.27
2017-10-02T04:21:14.694Z,12.29
2017-10-02T04:22:23.527Z,12.31
2017-10-02T04:23:32.360Z,12.24
2017-10-02T04:24:41.294Z,12.27
2017-10-02T04:25:50.124Z,12.23
2017-10-02T04:26:58.957Z,12.24
2017-10-02T04:28:07.791Z,12.32
2017-10-02T04:29:17.624Z,12.23
2017-10-02T04:30:26.507Z,12.24
2017-10-02T04:31:35.335Z,12.21
2017-10-02T04:32:44.496Z,12.29
2017-10-02T04:33:53.328Z,12.31
2017-10-02T04:35:02.159Z,12.27
2017-10-02T04:36:11.139Z,12.27
2017-10-02T04:37:19.971Z,12.31
2017-10-02T04:38:28.805Z,12.31
2017-10-02T04:39:37.637Z,12.34
2017-10-02T04:40:46.467Z,12.34
2017-10-02T04:41:55.401Z,12.31
2017-10-02T04:43:04.230Z,12.27
2017-10-02T04:44:13.062Z,12.28
2017-10-02T04:45:21.895Z,12.28
2017-10-02T04:46:30.726Z,12.28
2017-10-02T04:47:39.711Z,12.17
2017-10-02T04:48:48.541Z,12.31
2017-10-02T04:49:57.373Z,12.19
2017-10-02T04:51:06.204Z,12.17
2017-10-02T04:52:15.035Z,12.13
2017-10-02T04:53:23.917Z,12.19
2017-10-02T04:54:32.749Z,12.14
2017-10-02T04:55:41.590Z,12.17
2017-10-02T04:56:50.424Z,12.16
2017-10-02T04:57:59.253Z,12.16
2017-10-02T04:59:08.336Z,12.16
2017-10-02T05:00:17.169Z,12.2
2017-10-02T05:01:26.009Z,12.19
2017-10-02T05:02:35.177Z,12.23
2017-10-02T05:03:44.010Z,12.2
2017-10-02T05:04:53.094Z,12.24
2017-10-02T05:06:01.924Z,12.29
2017-10-02T05:07:10.754Z,12.28
2017-10-02T05:08:19.585Z,12.24
2017-10-02T05:09:28.417Z,12.28
2017-10-02T05:10:37.402Z,12.23
2017-10-02T05:11:46.234Z,12.27
2017-10-02T05:12:55.068Z,12.19
2017-10-02T05:14:03.900Z,12.21
2017-10-02T05:15:12.733Z,12.31
2017-10-02T05:16:21.564Z,12.29
2017-10-02T05:17:30.397Z,12.31
2017-10-02T05:18:39.232Z,12.28
2017-10-02T05:19:48.065Z,12.28
2017-10-02T05:20:57.227Z,12.28
2017-10-02T05:22:06.110Z,12.29
2017-10-02T05:23:14.945Z,12.29
2017-10-02T05:24:23.779Z,12.32
2017-10-02T05:25:32.610Z,12.23
2017-10-02T05:26:41.442Z,12.32
2017-10-02T05:27:50.273Z,12.24
2017-10-02T05:28:59.107Z,12.35
2017-10-02T05:30:07.941Z,12.29
2017-10-02T05:31:17.104Z,12.41
2017-10-02T05:32:25.937Z,12.41
2017-10-02T05:33:34.972Z,12.29
2017-10-02T05:34:43.803Z,12.29
2017-10-02T05:35:52.637Z,12.37
2017-10-02T05:37:01.470Z,12.32
2017-10-02T05:38:10.634Z,12.37
2017-10-02T05:39:19.515Z,12.34
2017-10-02T05:40:28.347Z,12.34
2017-10-02T05:41:37.202Z,12.35
2017-10-02T05:42:46.014Z,12.46
2017-10-02T05:43:54.846Z,12.34
2017-10-02T05:45:03.729Z,12.39
2017-10-02T05:46:12.561Z,12.35
2017-10-02T05:47:21.395Z,12.39
2017-10-02T05:48:30.228Z,12.41
2017-10-02T05:49:39.061Z,12.34
2017-10-02T05:50:47.994Z,12.37
2017-10-02T05:51:56.831Z,12.38
2017-10-02T05:53:05.663Z,12.38
2017-10-02T05:54:14.498Z,12.34
2017-10-02T05:55:23.663Z,12.41
2017-10-02T05:56:32.545Z,12.37
2017-10-02T05:57:41.377Z,12.45
2017-10-02T05:58:50.209Z,12.49
2017-10-02T05:59:59.043Z,12.45
2017-10-02T06:01:07.876Z,12.41
2017-10-02T06:02:16.758Z,12.39
2017-10-02T06:03:25.925Z,12.46
2017-10-02T06:04:34.758Z,12.41
2017-10-02T06:05:43.920Z,12.46
2017-10-02T06:06:52.754Z,12.41
2017-10-02T06:08:01.740Z,12.42
2017-10-02T06:09:10.902Z,12.46
2017-10-02T06:10:19.733Z,12.49
2017-10-02T06:11:28.566Z,12.42
2017-10-02T06:12:37.399Z,12.49
2017-10-02T06:13:46.612Z,12.5
2017-10-02T06:14:55.774Z,12.49
2017-10-02T06:16:04.610Z,12.54
2017-10-02T06:17:13.445Z,12.56
2017-10-02T06:18:22.280Z,12.5
2017-10-02T06:19:31.265Z,12.59
2017-10-02T06:20:40.099Z,12.59
2017-10-02T06:21:48.938Z,12.64
2017-10-02T06:22:58.102Z,12.56
2017-10-02T06:24:06.936Z,12.6
2017-10-02T06:25:15.924Z,12.49
2017-10-02T06:26:24.758Z,12.53
2017-10-02T06:27:33.589Z,12.54
2017-10-02T06:28:42.424Z,12.56
2017-10-02T06:29:51.258Z,12.6
2017-10-02T06:31:00.141Z,12.6
2017-10-02T06:32:08.977Z,12.71
2017-10-02T06:33:18.139Z,12.67
2017-10-02T06:34:26.971Z,12.68
2017-10-02T06:35:35.804Z,12.68
2017-10-02T06:36:45.066Z,12.68
2017-10-02T06:37:53.897Z,12.71
2017-10-02T06:39:02.727Z,12.71
2017-10-02T06:40:11.562Z,12.68
2017-10-02T06:41:20.395Z,12.78
2017-10-02T06:42:29.279Z,12.77
2017-10-02T06:43:38.113Z,12.77
2017-10-02T06:44:46.945Z,12.75
2017-10-02T06:45:55.778Z,12.74
2017-10-02T06:47:04.612Z,12.79
2017-10-02T06:48:13.546Z,12.75
2017-10-02T06:49:22.381Z,12.78
2017-10-02T06:50:31.214Z,12.86
2017-10-02T06:51:40.048Z,12.83
2017-10-02T06:52:48.880Z,12.87
2017-10-02T06:53:57.765Z,12.85
2017-10-02T06:55:06.599Z,12.89
2017-10-02T06:56:15.431Z,12.87
2017-10-02T06:57:24.266Z,12.95
2017-10-02T06:58:33.099Z,12.95
2017-10-02T06:59:41.931Z,12.93
2017-10-02T07:00:50.764Z,12.97
2017-10-02T07:01:59.597Z,13
2017-10-02T07:03:08.433Z,13
2017-10-02T07:04:17.601Z,12.96
2017-10-02T07:05:26.863Z,12.96
2017-10-02T07:06:35.699Z,12.97
2017-10-02T07:07:44.532Z,13.01
2017-10-02T07:08:53.366Z,13.04
2017-10-02T07:10:02.199Z,13.07
2017-10-02T07:11:11.183Z,13.1
2017-10-02T07:12:20.017Z,13.05
2017-10-02T07:13:28.852Z,13.1
2017-10-02T07:14:37.692Z,13.07
2017-10-02T07:15:46.526Z,13.12
2017-10-02T07:16:55.459Z,13.19
2017-10-02T07:18:04.622Z,13.14
2017-10-02T07:19:13.458Z,13.11
2017-10-02T07:20:22.336Z,13.19
2017-10-02T07:21:31.169Z,13.17
2017-10-02T07:22:40.155Z,13.17
2017-10-02T07:23:48.989Z,13.14
2017-10-02T07:24:57.822Z,13.29
2017-10-02T07:26:06.656Z,13.32
2017-10-02T07:27:15.489Z,13.29
2017-10-02T07:28:24.622Z,13.26
2017-10-02T07:29:33.456Z,13.29
2017-10-02T07:30:42.289Z,13.41
2017-10-02T07:31:51.122Z,13.3
2017-10-02T07:32:59.960Z,13.32
2017-10-02T07:34:08.893Z,13.32
2017-10-02T07:35:17.724Z,13.36
2017-10-02T07:36:26.558Z,13.3
2017-10-02T07:37:35.391Z,13.46
2017-10-02T07:38:44.227Z,13.51
2017-10-02T07:39:53.161Z,13.33
2017-10-02T07:41:01.993Z,13.49
2017-10-02T07:42:10.826Z,13.46
2017-10-02T07:43:19.660Z,13.49
2017-10-02T07:44:28.496Z,13.48
2017-10-02T07:45:37.327Z,13.52
2017-10-02T07:46:46.162Z,13.49
2017-10-02T07:47:55.003Z,13.54
2017-10-02T07:49:03.840Z,13.59
2017-10-02T07:50:12.677Z,13.48
2017-10-02T07:51:21.612Z,13.63
2017-10-02T07:52:30.448Z,13.49
2017-10-02T07:53:39.282Z,13.57
2017-10-02T07:54:48.117Z,13.52
2017-10-02T07:55:56.952Z,13.49
2017-10-02T07:57:06.185Z,13.52
2017-10-02T07:58:15.021Z,13.57
2017-10-02T07:59:23.860Z,13.52
2017-10-02T08:00:32.690Z,13.63
2017-10-02T08:01:41.527Z,13.63
2017-10-02T08:02:50.513Z,13.63
2017-10-02T08:03:59.357Z,13.64
2017-10-02T08:05:08.191Z,13.73
2017-10-02T08:06:17.026Z,13.69
2017-10-02T08:07:25.861Z,13.67
2017-10-02T08:08:34.798Z,13.7
2017-10-02T08:09:43.632Z,13.73
2017-10-02T08:10:52.467Z,13.7
2017-10-02T08:12:01.635Z,13.75
2017-10-02T08:13:10.470Z,13.71
2017-10-02T08:14:19.456Z,13.79
2017-10-02T08:15:28.296Z,13.81
2017-10-02T08:16:37.134Z,13.84
2017-10-02T08:17:45.971Z,13.85
2017-10-02T08:18:54.805Z,13.81
2017-10-02T08:20:03.791Z,13.82
2017-10-02T08:21:12.626Z,13.82
2017-10-02T08:22:21.459Z,13.84
2017-10-02T08:23:30.292Z,13.85
2017-10-02T08:24:39.173Z,13.91
2017-10-02T08:25:48.058Z,13.92
2017-10-02T08:26:56.894Z,13.85
2017-10-02T08:28:05.734Z,13.92
2017-10-02T08:29:14.568Z,14.03
2017-10-02T08:30:23.404Z,14.04
2017-10-02T08:31:32.642Z,14
2017-10-02T08:32:41.477Z,13.96
2017-10-02T08:33:50.641Z,13.97
2017-10-02T08:34:59.476Z,14.02
2017-10-02T08:36:08.316Z,14.07
2017-10-02T08:37:17.157Z,14.07
2017-10-02T08:38:25.993Z,14.07
2017-10-02T08:39:34.837Z,14.1
2017-10-02T08:40:44.001Z,14.1
2017-10-02T08:41:52.836Z,14.14
2017-10-02T08:43:01.669Z,14.22
2017-10-02T08:44:10.514Z,14.18
2017-10-02T08:45:19.351Z,14.25
2017-10-02T08:46:28.190Z,14.25
2017-10-02T08:47:37.027Z,14.27
2017-10-02T08:48:45.864Z,14.27
2017-10-02T08:49:54.699Z,14.28
2017-10-02T08:51:03.537Z,14.28
2017-10-02T08:52:12.376Z,14.32
2017-10-02T08:53:21.209Z,14.39
2017-10-02T08:54:30.194Z,14.37
2017-10-02T08:55:39.032Z,14.29
2017-10-02T08:56:47.918Z,14.33
2017-10-02T08:57:56.753Z,14.45
2017-10-02T08:59:05.919Z,14.47
2017-10-02T09:00:14.904Z,14.43
2017-10-02T09:01:23.739Z,14.57
2017-10-02T09:02:32.578Z,14.57
2017-10-02T09:03:41.416Z,14.55
2017-10-02T09:04:50.252Z,14.64
2017-10-02T09:05:59.087Z,14.57
2017-10-02T09:07:07.925Z,14.52
2017-10-02T09:08:16.770Z,14.6
2017-10-02T09:09:25.608Z,14.62
2017-10-02T09:10:34.446Z,14.78
2017-10-02T09:11:43.331Z,14.83
2017-10-02T09:12:52.217Z,14.58
2017-10-02T09:14:01.052Z,14.65
2017-10-02T09:15:09.888Z,14.75
2017-10-02T09:16:18.740Z,14.8
2017-10-02T09:17:27.573Z,14.91
2017-10-02T09:18:36.409Z,14.95
2017-10-02T09:19:45.246Z,14.99
2017-10-02T09:20:54.085Z,15.13
2017-10-02T09:22:02.918Z,15.17
2017-10-02T09:23:11.907Z,15.17
2017-10-02T09:24:20.802Z,15.23
2017-10-02T09:25:29.639Z,15.28
2017-10-02T09:26:38.475Z,15.27
2017-10-02T09:27:47.311Z,15.27
2017-10-02T09:28:56.273Z,15.32
2017-10-02T09:30:05.109Z,15.31
2017-10-02T09:31:13.945Z,15.36
2017-10-02T09:32:22.783Z,15.44
2017-10-02T09:33:31.632Z,15.38
2017-10-02T09:34:40.566Z,15.44
2017-10-02T09:35:49.735Z,15.51
2017-10-02T09:36:58.572Z,15.54
2017-10-02T09:38:07.413Z,15.5
2017-10-02T09:39:16.582Z,15.53
2017-10-02T09:40:25.479Z,15.53
2017-10-02T09:41:34.322Z,15.53
2017-10-02T09:42:43.172Z,15.62
2017-10-02T09:43:52.377Z,15.65
2017-10-02T09:45:01.246Z,15.74
2017-10-02T09:46:10.510Z,15.76
2017-10-02T09:47:19.351Z,15.8
2017-10-02T09:48:28.188Z,15.87
2017-10-02T09:49:37.039Z,15.84
2017-10-02T09:50:45.876Z,15.92
2017-10-02T09:51:54.712Z,15.86
2017-10-02T09:53:03.884Z,15.92
2017-10-02T09:54:12.720Z,15.87
2017-10-02T09:55:21.567Z,15.89
2017-10-02T09:56:30.406Z,15.93
2017-10-02T09:57:39.292Z,15.97
2017-10-02T09:58:48.126Z,15.92
2017-10-02T09:59:56.961Z,15.94
2017-10-02T10:01:05.798Z,15.9
2017-10-02T10:02:14.637Z,16.02
2017-10-02T10:03:23.525Z,15.96
2017-10-02T10:04:32.364Z,16.05
2017-10-02T10:05:41.209Z,16.05
2017-10-02T10:06:50.048Z,16.2
2017-10-02T10:07:58.888Z,16.24
2017-10-02T10:09:07.830Z,16.12
2017-10-02T10:10:16.676Z,16.23
2017-10-02T10:11:25.514Z,16.25
2017-10-02T10:12:34.360Z,16.27
2017-10-02T10:13:43.199Z,16.33
2017-10-02T10:14:52.342Z,16.35
2017-10-02T10:16:01.186Z,16.28
2017-10-02T10:17:10.022Z,16.27
2017-10-02T10:18:18.860Z,16.33
2017-10-02T10:19:27.696Z,16.33
2017-10-02T10:20:36.547Z,16.34
2017-10-02T10:21:45.390Z,16.38
2017-10-02T10:22:54.252Z,16.41
2017-10-02T10:24:03.311Z,16.48
2017-10-02T10:25:12.404Z,16.45
2017-10-02T10:26:21.364Z,16.45
2017-10-02T10:27:30.204Z,16.39
2017-10-02T10:28:39.046Z,16.35
2017-10-02T10:29:47.882Z,16.34
2017-10-02T10:30:56.721Z,16.35
2017-10-02T10:32:05.570Z,16.33
2017-10-02T10:33:14.426Z,16.35
2017-10-02T10:34:23.268Z,16.34
2017-10-02T10:35:32.107Z,16.39
2017-10-02T10:36:40.948Z,16.38
2017-10-02T10:37:49.785Z,16.33
2017-10-02T10:38:58.624Z,16.28
2017-10-02T10:40:07.465Z,16.28
2017-10-02T10:41:16.403Z,16.27
2017-10-02T10:42:25.241Z,16.27
2017-10-02T10:43:34.078Z,16.2
2017-10-02T10:44:42.916Z,16.24
2017-10-02T10:45:52.083Z,15.97
2017-10-02T10:47:01.021Z,15.89
2017-10-02T10:48:09.860Z,15.89
2017-10-02T10:49:18.698Z,15.8
2017-10-02T10:50:27.534Z,15.78
2017-10-02T10:51:36.371Z,15.87
2017-10-02T10:52:45.508Z,15.8
2017-10-02T10:53:54.342Z,15.8
2017-10-02T10:55:03.274Z,15.74
2017-10-02T10:56:12.130Z,15.76
2017-10-02T10:57:20.967Z,15.8
2017-10-02T10:58:29.809Z,15.83
2017-10-02T10:59:38.641Z,15.87
2017-10-02T11:00:47.475Z,15.84
2017-10-02T11:01:56.307Z,15.89
2017-10-02T11:03:05.145Z,15.86
2017-10-02T11:04:13.982Z,15.92
2017-10-02T11:05:22.816Z,15.87
2017-10-02T11:06:31.653Z,16.01
2017-10-02T11:07:40.490Z,15.96
2017-10-02T11:08:49.324Z,15.93
2017-10-02T11:09:58.246Z,16.05
2017-10-02T11:11:07.078Z,16.09
2017-10-02T11:12:15.966Z,16.17
2017-10-02T11:13:24.805Z,16.25
2017-10-02T11:14:33.645Z,16.31
2017-10-02T11:15:42.681Z,16.48
2017-10-02T11:16:51.851Z,16.46
2017-10-02T11:18:00.689Z,16.48
2017-10-02T11:19:09.526Z,16.63
2017-10-02T11:20:18.694Z,16.66
2017-10-02T11:21:27.784Z,16.75
2017-10-02T11:22:36.621Z,16.7
2017-10-02T11:23:45.457Z,16.81
2017-10-02T11:24:54.295Z,16.75
2017-10-02T11:26:03.131Z,16.75
2017-10-02T11:27:12.169Z,16.79
2017-10-02T11:28:21.005Z,16.79
2017-10-02T11:29:29.845Z,16.76
2017-10-02T11:30:38.687Z,16.75
2017-10-02T11:31:47.523Z,16.64
2017-10-02T11:32:56.461Z,16.78
2017-10-02T11:34:05.294Z,16.71
2017-10-02T11:35:14.129Z,16.76
2017-10-02T11:36:22.966Z,16.68
2017-10-02T11:37:31.804Z,16.66
2017-10-02T11:38:40.692Z,16.56
2017-10-02T11:39:49.527Z,16.66
2017-10-02T11:40:58.364Z,16.52
2017-10-02T11:42:07.198Z,16.7
2017-10-02T11:43:16.035Z,16.63
2017-10-02T11:44:25.170Z,16.71
2017-10-02T11:45:34.006Z,16.78
2017-10-02T11:46:42.844Z,16.82
2017-10-02T11:47:51.680Z,16.76
2017-10-02T11:49:00.517Z,16.78
2017-10-02T11:50:09.687Z,16.85
2017-10-02T11:51:18.524Z,16.88
2017-10-02T11:52:27.363Z,16.79
2017-10-02T11:53:36.198Z,16.81
2017-10-02T11:54:45.036Z,16.81
2017-10-02T11:55:53.972Z,16.88
2017-10-02T11:57:02.808Z,16.81
2017-10-02T11:58:11.643Z,16.96
2017-10-02T11:59:20.478Z,16.93
2017-10-02T12:00:29.318Z,16.89
2017-10-02T12:01:38.306Z,17
2017-10-02T12:02:47.143Z,16.97
2017-10-02T12:03:55.979Z,17.03
2017-10-02T12:05:04.818Z,17.14
2017-10-02T12:06:13.654Z,17.01
2017-10-02T12:07:22.494Z,17.16
2017-10-02T12:08:31.338Z,17.14
2017-10-02T12:09:40.174Z,17.15
2017-10-02T12:10:49.015Z,17.19
2017-10-02T12:11:57.854Z,17.23
2017-10-02T12:13:06.741Z,17.19
2017-10-02T12:14:15.579Z,17.3
2017-10-02T12:15:24.415Z,17.33
2017-10-02T12:16:33.252Z,17.31
2017-10-02T12:17:42.423Z,17.41
2017-10-02T12:18:51.313Z,17.46
2017-10-02T12:20:00.152Z,17.43
2017-10-02T12:21:08.988Z,17.34
2017-10-02T12:22:18.163Z,17.46
2017-10-02T12:23:26.998Z,17.38
2017-10-02T12:24:35.886Z,17.41
2017-10-02T12:25:44.725Z,17.41
2017-10-02T12:26:53.567Z,17.51
2017-10-02T12:28:02.406Z,17.51
2017-10-02T12:29:11.245Z,17.51
2017-10-02T12:30:20.234Z,17.46
2017-10-02T12:31:29.074Z,17.4
2017-10-02T12:32:38.244Z,17.4
2017-10-02T12:33:47.080Z,17.44
2017-10-02T12:34:55.917Z,17.44
2017-10-02T12:36:04.753Z,17.49
2017-10-02T12:37:13.597Z,17.43
2017-10-02T12:38:22.764Z,17.44
2017-10-02T12:39:31.607Z,17.36
2017-10-02T12:40:40.446Z,17.36
2017-10-02T12:41:49.435Z,17.38
2017-10-02T12:42:58.273Z,17.37
2017-10-02T12:44:07.445Z,17.36
2017-10-02T12:45:16.283Z,17.36
2017-10-02T12:46:25.119Z,17.31
2017-10-02T12:47:34.394Z,17.28
2017-10-02T12:48:43.234Z,17.33
2017-10-02T12:49:52.077Z,17.26
2017-10-02T12:51:00.917Z,17.31
2017-10-02T12:52:09.755Z,17.33
2017-10-02T12:53:18.641Z,17.28
2017-10-02T12:54:27.477Z,17.22
2017-10-02T12:55:36.315Z,17.26
2017-10-02T12:56:45.152Z,17.26
2017-10-02T12:57:53.989Z,17.31
2017-10-02T12:59:02.875Z,17.33
2017-10-02T13:00:11.766Z,17.3
2017-10-02T13:01:20.602Z,17.25
2017-10-02T13:02:29.440Z,17.26
2017-10-02T13:03:38.277Z,17.26
2017-10-02T13:04:47.263Z,17.26
2017-10-02T13:05:56.102Z,17.33
2017-10-02T13:07:04.938Z,17.28
2017-10-02T13:08:13.776Z,17.31
2017-10-02T13:09:22.617Z,17.33
2017-10-02T13:10:31.505Z,17.36
2017-10-02T13:11:40.342Z,17.49
2017-10-02T13:12:49.180Z,17.49
2017-10-02T13:13:58.015Z,17.46
2017-10-02T13:15:06.850Z,17.52
2017-10-02T13:16:15.786Z,17.59
2017-10-02T13:17:24.622Z,17.63
2017-10-02T13:18:33.461Z,17.66
2017-10-02T13:19:42.298Z,17.66
2017-10-02T13:20:51.136Z,17.66
2017-10-02T13:22:00.124Z,17.7
2017-10-02T13:23:08.959Z,17.74
2017-10-02T13:24:17.797Z,17.79
2017-10-02T13:25:26.634Z,17.78
2017-10-02T13:26:35.472Z,17.74
2017-10-02T13:27:44.558Z,17.9
2017-10-02T13:28:53.404Z,17.81
2017-10-02T13:30:02.570Z,17.84
2017-10-02T13:31:11.409Z,17.74
2017-10-02T13:32:20.248Z,17.77
2017-10-02T13:33:29.473Z,17.75
2017-10-02T13:34:38.310Z,17.77
2017-10-02T13:35:47.149Z,17.75
2017-10-02T13:36:55.986Z,17.82
2017-10-02T13:38:04.825Z,17.64
2017-10-02T13:39:13.660Z,17.71
2017-10-02T13:40:22.498Z,17.74
2017-10-02T13:41:31.332Z,17.79
2017-10-02T13:42:40.171Z,17.71
2017-10-02T13:43:49.007Z,17.7
2017-10-02T13:44:57.945Z,17.66
2017-10-02T13:46:06.784Z,17.63
2017-10-02T13:47:15.619Z,17.66
2017-10-02T13:48:24.458Z,17.68
2017-10-02T13:49:33.296Z,17.66
2017-10-02T13:50:42.233Z,17.7
2017-10-02T13:51:51.072Z,17.68
2017-10-02T13:52:59.911Z,17.66
2017-10-02T13:54:09.086Z,17.7
2017-10-02T13:55:17.923Z,17.66
2017-10-02T13:56:26.809Z,17.68
2017-10-02T13:57:35.647Z,17.71
2017-10-02T13:58:44.486Z,17.7
2017-10-02T13:59:53.321Z,17.71
2017-10-02T14:01:02.157Z,17.72
2017-10-02T14:02:10.996Z,17.63
2017-10-02T14:03:19.836Z,17.64
2017-10-02T14:04:28.671Z,17.7
2017-10-02T14:05:37.507Z,17.52
2017-10-02T14:06:46.341Z,17.51
2017-10-02T14:07:55.327Z,17.54
2017-10-02T14:09:04.162Z,17.51
2017-10-02T14:10:13.328Z,17.63
2017-10-02T14:11:22.166Z,17.63
2017-10-02T14:12:31.002Z,17.66
2017-10-02T14:13:39.890Z,17.63
2017-10-02T14:14:48.727Z,17.64
2017-10-02T14:15:57.565Z,17.7
2017-10-02T14:17:06.401Z,17.75
2017-10-02T14:18:15.238Z,17.71
2017-10-02T14:19:24.176Z,17.78
2017-10-02T14:20:33.016Z,17.75
2017-10-02T14:21:41.863Z,17.78
2017-10-02T14:22:51.029Z,17.78
2017-10-02T14:23:59.865Z,17.7
2017-10-02T14:25:08.803Z,17.7
2017-10-02T14:26:17.640Z,17.79
2017-10-02T14:27:26.479Z,17.74
2017-10-02T14:28:35.316Z,17.62
2017-10-02T14:29:44.153Z,17.7
2017-10-02T14:30:53.091Z,17.7
2017-10-02T14:32:01.929Z,17.64
2017-10-02T14:33:10.768Z,17.54
2017-10-02T14:34:19.602Z,17.58
2017-10-02T14:35:28.438Z,17.64
2017-10-02T14:36:37.327Z,17.68
2017-10-02T14:37:46.165Z,17.68
2017-10-02T14:38:55.010Z,17.77
2017-10-02T14:40:03.846Z,17.75
2017-10-02T14:41:12.685Z,17.66
2017-10-02T14:42:21.524Z,17.64
2017-10-02T14:43:30.359Z,17.58
2017-10-02T14:44:39.527Z,17.52
2017-10-02T14:45:48.366Z,17.52
2017-10-02T14:46:57.207Z,17.55
2017-10-02T14:48:06.372Z,17.55
2017-10-02T14:49:15.209Z,17.55
2017-10-02T14:50:24.049Z,17.51